Avon, North Carolina
Current Conditions -  °F | °C
As of 4:51 AM on Friday 24 Oct 2014 (Local Time) from KHSE Reporting Station
Clear Clear  
Wind Chill: 14°   Ceiling: Unl
Heat Index: 14°   Visibility: 10mi
Dew Point:   Wind: 10mph
Humidity: 72%   Direction: 330°NNW
Pressure: 29.93"   Gusts: 18mph
Location:  35.35°N, 75.51°W
Report Text: KHSE 240851Z AUTO 33009G16KT 10SM CLR 14/09 A2993 RMK AO2 SLP134 T01440094 55004 TSNO
Loading
Personal Weather Stations






























Interactive Weather Map
Tropical Storm Tracking
New forecast layout! Learn more

10-Day Weather Forecast

Advertisements
Track Severe Weather on mobile